sensor_id;sensor_type;location;lat;lon;timestamp;pressure;altitude;pressure_sealevel;temperature;humidity
84224;BME280;74353;51.208;0.304;2023-12-22T00:01:40;101002.72;;;11.57;37.80
84224;BME280;74353;51.208;0.304;2023-12-22T00:04:11;100994.54;;;11.77;37.61
84224;BME280;74353;51.208;0.304;2023-12-22T00:06:37;100995.12;;;11.69;37.68
84224;BME280;74353;51.208;0.304;2023-12-22T00:09:03;100991.12;;;11.71;37.51
84224;BME280;74353;51.208;0.304;2023-12-22T00:11:28;100984.29;;;11.58;37.71
84224;BME280;74353;51.208;0.304;2023-12-22T00:13:54;100998.79;;;11.73;37.39
84224;BME280;74353;51.208;0.304;2023-12-22T00:16:20;100985.43;;;11.70;37.62
84224;BME280;74353;51.208;0.304;2023-12-22T00:18:45;100983.92;;;11.57;37.71
84224;BME280;74353;51.208;0.304;2023-12-22T00:21:11;100990.40;;;11.67;37.55
84224;BME280;74353;51.208;0.304;2023-12-22T00:23:38;100993.82;;;11.92;37.59
84224;BME280;74353;51.208;0.304;2023-12-22T00:26:05;100986.72;;;11.59;37.75
84224;BME280;74353;51.208;0.304;2023-12-22T00:28:30;100992.23;;;11.53;37.74
84224;BME280;74353;51.208;0.304;2023-12-22T00:30:56;100999.57;;;11.72;37.61
84224;BME280;74353;51.208;0.304;2023-12-22T00:33:23;100996.73;;;11.75;37.54
84224;BME280;74353;51.208;0.304;2023-12-22T00:35:49;100997.16;;;11.56;37.80
84224;BME280;74353;51.208;0.304;2023-12-22T00:38:15;100972.42;;;11.39;38.05
84224;BME280;74353;51.208;0.304;2023-12-22T00:40:41;100983.59;;;11.40;38.23
84224;BME280;74353;51.208;0.304;2023-12-22T00:43:07;100976.46;;;11.65;38.24
84224;BME280;74353;51.208;0.304;2023-12-22T00:45:32;100986.70;;;11.42;38.31
84224;BME280;74353;51.208;0.304;2023-12-22T00:47:58;100983.44;;;11.27;38.51
84224;BME280;74353;51.208;0.304;2023-12-22T00:50:23;100994.74;;;11.51;38.22
84224;BME280;74353;51.208;0.304;2023-12-22T00:52:49;100989.95;;;11.54;38.34
84224;BME280;74353;51.208;0.304;2023-12-22T00:55:15;100996.33;;;11.48;38.41
84224;BME280;74353;51.208;0.304;2023-12-22T00:57:43;101005.45;;;11.46;38.55
84224;BME280;74353;51.208;0.304;2023-12-22T01:00:09;100995.22;;;11.64;38.72
84224;BME280;74353;51.208;0.304;2023-12-22T01:02:34;101005.16;;;11.70;38.41
84224;BME280;74353;51.208;0.304;2023-12-22T01:05:00;101007.18;;;11.69;38.81
84224;BME280;74353;51.208;0.304;2023-12-22T01:07:26;101009.36;;;11.75;38.88
84224;BME280;74353;51.208;0.304;2023-12-22T01:09:54;101012.18;;;11.69;38.56
84224;BME280;74353;51.208;0.304;2023-12-22T01:12:20;101005.19;;;11.63;38.72
84224;BME280;74353;51.208;0.304;2023-12-22T01:14:48;101008.18;;;11.42;39.07
84224;BME280;74353;51.208;0.304;2023-12-22T01:17:14;101005.40;;;11.52;38.96
84224;BME280;74353;51.208;0.304;2023-12-22T01:19:39;101006.91;;;11.28;39.10
84224;BME280;74353;51.208;0.304;2023-12-22T01:22:06;101008.47;;;11.33;39.34
84224;BME280;74353;51.208;0.304;2023-12-22T01:24:32;101013.80;;;11.94;38.97
84224;BME280;74353;51.208;0.304;2023-12-22T01:26:58;101014.21;;;11.65;39.18
84224;BME280;74353;51.208;0.304;2023-12-22T01:29:24;101015.75;;;11.50;39.52
84224;BME280;74353;51.208;0.304;2023-12-22T01:31:50;101020.32;;;11.73;39.59
84224;BME280;74353;51.208;0.304;2023-12-22T01:34:16;101022.63;;;11.53;39.53
84224;BME280;74353;51.208;0.304;2023-12-22T01:36:42;101021.31;;;11.95;39.39
84224;BME280;74353;51.208;0.304;2023-12-22T01:39:09;101021.80;;;11.51;39.63
84224;BME280;74353;51.208;0.304;2023-12-22T01:41:35;101027.00;;;11.24;40.26
84224;BME280;74353;51.208;0.304;2023-12-22T01:44:01;101027.81;;;11.67;39.98
84224;BME280;74353;51.208;0.304;2023-12-22T01:46:27;101033.68;;;11.35;40.15
84224;BME280;74353;51.208;0.304;2023-12-22T01:48:52;101028.70;;;11.54;39.94
84224;BME280;74353;51.208;0.304;2023-12-22T01:51:19;101029.09;;;11.61;39.98
84224;BME280;74353;51.208;0.304;2023-12-22T01:53:44;101031.59;;;11.56;40.20
84224;BME280;74353;51.208;0.304;2023-12-22T01:56:09;101022.82;;;11.51;40.39
84224;BME280;74353;51.208;0.304;2023-12-22T01:58:37;101026.35;;;11.93;40.22
84224;BME280;74353;51.208;0.304;2023-12-22T02:01:04;101015.29;;;11.57;40.49
84224;BME280;74353;51.208;0.304;2023-12-22T02:03:30;101012.90;;;11.48;40.84
84224;BME280;74353;51.208;0.304;2023-12-22T02:05:55;101005.55;;;11.60;40.72
84224;BME280;74353;51.208;0.304;2023-12-22T02:08:22;100997.58;;;11.32;40.97
84224;BME280;74353;51.208;0.304;2023-12-22T02:10:55;101002.77;;;11.65;40.81
84224;BME280;74353;51.208;0.304;2023-12-22T02:13:20;101003.29;;;11.47;41.16
84224;BME280;74353;51.208;0.304;2023-12-22T02:15:58;100993.22;;;11.70;40.86
84224;BME280;74353;51.208;0.304;2023-12-22T02:18:21;100995.74;;;11.47;41.26
84224;BME280;74353;51.208;0.304;2023-12-22T02:20:46;100996.80;;;11.75;40.89
84224;BME280;74353;51.208;0.304;2023-12-22T02:23:17;101003.96;;;11.57;41.25
84224;BME280;74353;51.208;0.304;2023-12-22T02:25:43;101005.58;;;11.73;41.13
84224;BME280;74353;51.208;0.304;2023-12-22T02:28:13;101006.28;;;11.74;41.24
84224;BME280;74353;51.208;0.304;2023-12-22T02:30:42;101006.88;;;11.71;41.40
84224;BME280;74353;51.208;0.304;2023-12-22T02:33:06;101001.03;;;12.10;41.25
84224;BME280;74353;51.208;0.304;2023-12-22T02:35:35;101004.02;;;11.34;41.87
84224;BME280;74353;51.208;0.304;2023-12-22T02:38:01;101009.01;;;11.71;41.98
84224;BME280;74353;51.208;0.304;2023-12-22T02:40:26;101008.85;;;11.89;42.15
84224;BME280;74353;51.208;0.304;2023-12-22T02:42:52;101017.33;;;11.63;42.92
84224;BME280;74353;51.208;0.304;2023-12-22T02:45:18;101015.64;;;11.56;43.71
84224;BME280;74353;51.208;0.304;2023-12-22T02:47:46;101012.31;;;11.84;43.98
84224;BME280;74353;51.208;0.304;2023-12-22T02:50:15;101014.46;;;11.93;44.20
84224;BME280;74353;51.208;0.304;2023-12-22T02:52:41;101011.53;;;11.82;44.84
84224;BME280;74353;51.208;0.304;2023-12-22T02:55:09;100998.80;;;11.83;45.01
84224;BME280;74353;51.208;0.304;2023-12-22T02:57:37;100983.28;;;11.86;45.28
84224;BME280;74353;51.208;0.304;2023-12-22T03:00:05;100975.57;;;11.77;45.59
84224;BME280;74353;51.208;0.304;2023-12-22T03:02:29;100979.26;;;11.94;45.47
84224;BME280;74353;51.208;0.304;2023-12-22T03:04:54;100986.75;;;12.09;45.38
84224;BME280;74353;51.208;0.304;2023-12-22T03:07:20;100980.67;;;11.78;46.07
84224;BME280;74353;51.208;0.304;2023-12-22T03:09:46;100971.78;;;11.43;46.46
84224;BME280;74353;51.208;0.304;2023-12-22T03:12:12;100968.01;;;11.73;46.60
84224;BME280;74353;51.208;0.304;2023-12-22T03:14:39;100959.96;;;11.54;46.46
84224;BME280;74353;51.208;0.304;2023-12-22T03:17:05;100956.21;;;11.49;46.65
84224;BME280;74353;51.208;0.304;2023-12-22T03:19:30;100944.52;;;11.65;46.48
84224;BME280;74353;51.208;0.304;2023-12-22T03:21:56;100938.39;;;11.40;46.95
84224;BME280;74353;51.208;0.304;2023-12-22T03:24:22;100936.47;;;11.61;46.98
84224;BME280;74353;51.208;0.304;2023-12-22T03:26:49;100928.23;;;11.74;46.88
84224;BME280;74353;51.208;0.304;2023-12-22T03:29:19;100924.45;;;11.77;46.75
84224;BME280;74353;51.208;0.304;2023-12-22T03:31:44;100924.78;;;11.70;46.87
84224;BME280;74353;51.208;0.304;2023-12-22T03:34:10;100921.90;;;11.69;46.93
84224;BME280;74353;51.208;0.304;2023-12-22T03:36:37;100915.99;;;11.58;46.82
84224;BME280;74353;51.208;0.304;2023-12-22T03:39:06;100908.69;;;11.80;46.78
84224;BME280;74353;51.208;0.304;2023-12-22T03:41:33;100912.10;;;11.57;47.11
84224;BME280;74353;51.208;0.304;2023-12-22T03:44:00;100904.69;;;11.65;47.00
84224;BME280;74353;51.208;0.304;2023-12-22T03:46:26;100905.34;;;11.60;47.09
84224;BME280;74353;51.208;0.304;2023-12-22T03:48:53;100907.20;;;11.68;46.95
84224;BME280;74353;51.208;0.304;2023-12-22T03:51:19;100900.60;;;11.58;47.01
84224;BME280;74353;51.208;0.304;2023-12-22T03:53:45;100901.60;;;11.67;47.28
84224;BME280;74353;51.208;0.304;2023-12-22T03:56:12;100907.90;;;11.59;46.94
84224;BME280;74353;51.208;0.304;2023-12-22T03:58:39;100906.76;;;11.71;46.79
84224;BME280;74353;51.208;0.304;2023-12-22T04:01:04;100894.65;;;11.58;46.89
84224;BME280;74353;51.208;0.304;2023-12-22T04:03:30;100893.96;;;11.96;46.58
84224;BME280;74353;51.208;0.304;2023-12-22T04:06:02;100896.82;;;11.66;46.76
84224;BME280;74353;51.208;0.304;2023-12-22T04:08:27;100892.17;;;11.71;46.69
84224;BME280;74353;51.208;0.304;2023-12-22T04:10:53;100888.99;;;11.72;46.63
84224;BME280;74353;51.208;0.304;2023-12-22T04:13:18;100888.53;;;11.88;46.81
84224;BME280;74353;51.208;0.304;2023-12-22T04:15:44;100889.68;;;11.57;46.99
84224;BME280;74353;51.208;0.304;2023-12-22T04:18:10;100889.47;;;11.61;46.96
84224;BME280;74353;51.208;0.304;2023-12-22T04:20:35;100890.58;;;11.49;47.16
84224;BME280;74353;51.208;0.304;2023-12-22T04:23:03;100888.47;;;11.54;47.21
84224;BME280;74353;51.208;0.304;2023-12-22T04:25:28;100891.87;;;11.54;47.20
84224;BME280;74353;51.208;0.304;2023-12-22T04:27:56;100890.27;;;11.62;47.04
84224;BME280;74353;51.208;0.304;2023-12-22T04:30:24;100888.93;;;11.82;46.70
84224;BME280;74353;51.208;0.304;2023-12-22T04:32:49;100887.02;;;11.69;47.02
84224;BME280;74353;51.208;0.304;2023-12-22T04:35:17;100887.76;;;11.70;46.99
84224;BME280;74353;51.208;0.304;2023-12-22T04:37:43;100888.62;;;11.99;46.51
84224;BME280;74353;51.208;0.304;2023-12-22T04:40:09;100889.18;;;12.02;46.56
84224;BME280;74353;51.208;0.304;2023-12-22T04:42:34;100887.09;;;11.83;46.93
84224;BME280;74353;51.208;0.304;2023-12-22T04:45:03;100893.90;;;11.77;47.00
84224;BME280;74353;51.208;0.304;2023-12-22T04:47:29;100893.98;;;11.94;46.75
84224;BME280;74353;51.208;0.304;2023-12-22T04:49:56;100884.50;;;11.76;47.12
84224;BME280;74353;51.208;0.304;2023-12-22T04:52:21;100891.65;;;11.71;47.24
84224;BME280;74353;51.208;0.304;2023-12-22T04:54:47;100893.08;;;11.65;46.95
84224;BME280;74353;51.208;0.304;2023-12-22T04:57:12;100889.56;;;11.81;47.15
84224;BME280;74353;51.208;0.304;2023-12-22T04:59:38;100890.78;;;11.98;46.88
84224;BME280;74353;51.208;0.304;2023-12-22T05:02:05;100880.60;;;11.94;46.99
84224;BME280;74353;51.208;0.304;2023-12-22T05:04:30;100878.24;;;12.10;46.68
84224;BME280;74353;51.208;0.304;2023-12-22T05:06:56;100877.68;;;11.71;47.02
84224;BME280;74353;51.208;0.304;2023-12-22T05:09:25;100875.15;;;11.96;46.63
84224;BME280;74353;51.208;0.304;2023-12-22T05:11:51;100880.95;;;12.05;46.79
84224;BME280;74353;51.208;0.304;2023-12-22T05:14:18;100876.75;;;12.06;46.93
84224;BME280;74353;51.208;0.304;2023-12-22T05:16:43;100872.50;;;12.25;46.63
84224;BME280;74353;51.208;0.304;2023-12-22T05:19:10;100880.99;;;11.85;46.87
84224;BME280;74353;51.208;0.304;2023-12-22T05:21:37;100879.65;;;12.01;47.04
84224;BME280;74353;51.208;0.304;2023-12-22T05:24:05;100874.51;;;12.10;46.88
84224;BME280;74353;51.208;0.304;2023-12-22T05:26:32;100862.67;;;12.08;46.95
84224;BME280;74353;51.208;0.304;2023-12-22T05:29:00;100859.90;;;12.08;46.99
84224;BME280;74353;51.208;0.304;2023-12-22T05:31:27;100858.81;;;12.20;46.85
84224;BME280;74353;51.208;0.304;2023-12-22T05:33:55;100866.42;;;12.27;46.70
84224;BME280;74353;51.208;0.304;2023-12-22T05:36:21;100871.09;;;12.21;46.79
84224;BME280;74353;51.208;0.304;2023-12-22T05:38:45;100871.31;;;12.13;46.86
84224;BME280;74353;51.208;0.304;2023-12-22T05:41:11;100867.33;;;12.04;47.10
84224;BME280;74353;51.208;0.304;2023-12-22T05:43:37;100862.90;;;12.15;46.89
84224;BME280;74353;51.208;0.304;2023-12-22T05:46:03;100857.12;;;12.08;46.60
84224;BME280;74353;51.208;0.304;2023-12-22T05:48:38;100862.16;;;12.25;46.74
84224;BME280;74353;51.208;0.304;2023-12-22T05:50:56;100869.32;;;12.31;46.64
84224;BME280;74353;51.208;0.304;2023-12-22T05:53:21;100865.09;;;12.24;46.72
84224;BME280;74353;51.208;0.304;2023-12-22T05:55:47;100873.00;;;12.30;46.57
84224;BME280;74353;51.208;0.304;2023-12-22T05:58:12;100878.50;;;11.87;46.95
84224;BME280;74353;51.208;0.304;2023-12-22T06:00:37;100874.41;;;12.36;46.54
84224;BME280;74353;51.208;0.304;2023-12-22T06:03:04;100880.14;;;12.44;46.39
84224;BME280;74353;51.208;0.304;2023-12-22T06:05:29;100888.45;;;12.15;46.64
84224;BME280;74353;51.208;0.304;2023-12-22T06:07:56;100893.49;;;12.27;47.32
84224;BME280;74353;51.208;0.304;2023-12-22T06:10:22;100883.94;;;12.42;47.45
84224;BME280;74353;51.208;0.304;2023-12-22T06:12:52;100879.71;;;12.44;47.80
84224;BME280;74353;51.208;0.304;2023-12-22T06:15:17;100888.61;;;12.26;48.06
84224;BME280;74353;51.208;0.304;2023-12-22T06:17:42;100888.46;;;12.36;48.48
84224;BME280;74353;51.208;0.304;2023-12-22T06:20:10;100887.63;;;12.69;48.08
84224;BME280;74353;51.208;0.304;2023-12-22T06:22:35;100881.79;;;12.56;48.44
84224;BME280;74353;51.208;0.304;2023-12-22T06:25:01;100884.75;;;12.38;48.39
84224;BME280;74353;51.208;0.304;2023-12-22T06:27:26;100884.95;;;12.41;48.38
84224;BME280;74353;51.208;0.304;2023-12-22T06:29:51;100880.46;;;12.36;48.48
84224;BME280;74353;51.208;0.304;2023-12-22T06:32:18;100867.73;;;12.31;48.63
84224;BME280;74353;51.208;0.304;2023-12-22T06:34:44;100874.58;;;12.21;48.84
84224;BME280;74353;51.208;0.304;2023-12-22T06:37:09;100872.93;;;12.10;48.62
84224;BME280;74353;51.208;0.304;2023-12-22T06:39:37;100873.44;;;12.26;48.86
84224;BME280;74353;51.208;0.304;2023-12-22T06:42:03;100866.16;;;12.57;48.71
84224;BME280;74353;51.208;0.304;2023-12-22T06:44:30;100869.79;;;12.48;48.40
84224;BME280;74353;51.208;0.304;2023-12-22T06:46:56;100864.63;;;12.20;48.79
84224;BME280;74353;51.208;0.304;2023-12-22T06:49:22;100871.12;;;12.30;48.56
84224;BME280;74353;51.208;0.304;2023-12-22T06:51:51;100874.69;;;12.11;48.42
84224;BME280;74353;51.208;0.304;2023-12-22T06:54:16;100881.86;;;12.38;48.29
84224;BME280;74353;51.208;0.304;2023-12-22T06:56:43;100875.35;;;12.67;48.23
84224;BME280;74353;51.208;0.304;2023-12-22T06:59:08;100879.47;;;12.24;48.17
84224;BME280;74353;51.208;0.304;2023-12-22T07:01:36;100879.82;;;12.31;48.35
84224;BME280;74353;51.208;0.304;2023-12-22T07:04:03;100877.18;;;12.38;48.31
84224;BME280;74353;51.208;0.304;2023-12-22T07:06:29;100880.11;;;12.16;48.22
84224;BME280;74353;51.208;0.304;2023-12-22T07:11:22;100885.40;;;12.77;47.92
84224;BME280;74353;51.208;0.304;2023-12-22T07:13:51;100884.58;;;12.69;48.04
84224;BME280;74353;51.208;0.304;2023-12-22T07:16:18;100889.97;;;12.39;48.42
84224;BME280;74353;51.208;0.304;2023-12-22T07:18:45;100886.75;;;12.29;48.06
84224;BME280;74353;51.208;0.304;2023-12-22T07:21:16;100888.63;;;12.27;47.99
84224;BME280;74353;51.208;0.304;2023-12-22T07:23:36;100880.97;;;12.36;47.84
84224;BME280;74353;51.208;0.304;2023-12-22T07:26:01;100881.93;;;12.37;47.80
84224;BME280;74353;51.208;0.304;2023-12-22T07:28:26;100880.77;;;12.47;47.50
84224;BME280;74353;51.208;0.304;2023-12-22T07:30:53;100889.10;;;12.66;47.46
84224;BME280;74353;51.208;0.304;2023-12-22T07:33:18;100896.24;;;12.45;47.34
84224;BME280;74353;51.208;0.304;2023-12-22T07:35:44;100885.62;;;12.41;47.29
84224;BME280;74353;51.208;0.304;2023-12-22T07:38:12;100899.60;;;12.46;47.62
84224;BME280;74353;51.208;0.304;2023-12-22T07:40:38;100914.28;;;12.38;47.38
84224;BME280;74353;51.208;0.304;2023-12-22T07:43:03;100901.73;;;12.71;47.26
84224;BME280;74353;51.208;0.304;2023-12-22T07:45:29;100903.76;;;12.45;47.24
84224;BME280;74353;51.208;0.304;2023-12-22T07:47:54;100892.56;;;12.40;47.21
84224;BME280;74353;51.208;0.304;2023-12-22T07:50:22;100900.25;;;12.45;46.99
84224;BME280;74353;51.208;0.304;2023-12-22T07:52:49;100903.27;;;12.45;46.90
84224;BME280;74353;51.208;0.304;2023-12-22T07:55:14;100902.93;;;12.51;46.64
84224;BME280;74353;51.208;0.304;2023-12-22T07:57:41;100904.97;;;12.52;46.58
84224;BME280;74353;51.208;0.304;2023-12-22T08:00:07;100908.45;;;12.82;46.47
84224;BME280;74353;51.208;0.304;2023-12-22T08:02:33;100917.39;;;12.44;46.59
84224;BME280;74353;51.208;0.304;2023-12-22T08:04:58;100920.75;;;12.75;46.24
84224;BME280;74353;51.208;0.304;2023-12-22T08:07:23;100924.77;;;12.42;46.50
84224;BME280;74353;51.208;0.304;2023-12-22T08:09:53;100943.36;;;12.39;46.58
84224;BME280;74353;51.208;0.304;2023-12-22T08:12:19;100946.43;;;12.41;46.62
84224;BME280;74353;51.208;0.304;2023-12-22T08:14:44;100946.97;;;12.21;46.55
84224;BME280;74353;51.208;0.304;2023-12-22T08:17:09;100954.30;;;12.23;46.98
84224;BME280;74353;51.208;0.304;2023-12-22T08:19:36;100947.27;;;12.56;46.41
84224;BME280;74353;51.208;0.304;2023-12-22T08:22:01;100951.44;;;12.52;46.40
84224;BME280;74353;51.208;0.304;2023-12-22T08:24:29;100957.48;;;12.64;46.49
84224;BME280;74353;51.208;0.304;2023-12-22T08:26:54;100959.71;;;12.40;46.58
84224;BME280;74353;51.208;0.304;2023-12-22T08:29:22;100964.43;;;12.46;46.40
84224;BME280;74353;51.208;0.304;2023-12-22T08:31:49;100963.12;;;12.36;46.47
84224;BME280;74353;51.208;0.304;2023-12-22T08:34:15;100962.44;;;12.45;46.40
84224;BME280;74353;51.208;0.304;2023-12-22T08:36:40;100946.14;;;12.74;45.85
84224;BME280;74353;51.208;0.304;2023-12-22T08:39:08;100958.88;;;12.48;46.06
84224;BME280;74353;51.208;0.304;2023-12-22T08:41:36;100954.56;;;12.55;45.87
84224;BME280;74353;51.208;0.304;2023-12-22T08:44:02;100958.05;;;12.46;45.86
84224;BME280;74353;51.208;0.304;2023-12-22T08:46:27;100947.01;;;12.48;45.72
84224;BME280;74353;51.208;0.304;2023-12-22T08:48:53;100940.71;;;12.46;45.66
84224;BME280;74353;51.208;0.304;2023-12-22T08:51:18;100934.03;;;12.68;45.60
84224;BME280;74353;51.208;0.304;2023-12-22T08:53:44;100935.56;;;12.67;45.17
84224;BME280;74353;51.208;0.304;2023-12-22T08:56:10;100942.58;;;12.60;45.15
84224;BME280;74353;51.208;0.304;2023-12-22T08:58:37;100944.42;;;12.79;45.25
84224;BME280;74353;51.208;0.304;2023-12-22T09:01:05;100944.76;;;12.53;45.31
84224;BME280;74353;51.208;0.304;2023-12-22T09:03:33;100943.02;;;12.56;45.25
84224;BME280;74353;51.208;0.304;2023-12-22T09:05:57;100939.95;;;12.32;45.24
84224;BME280;74353;51.208;0.304;2023-12-22T09:08:24;100947.65;;;12.43;45.39
84224;BME280;74353;51.208;0.304;2023-12-22T09:10:50;100947.52;;;12.26;45.35
84224;BME280;74353;51.208;0.304;2023-12-22T09:13:17;100951.02;;;12.26;45.30
84224;BME280;74353;51.208;0.304;2023-12-22T09:15:45;100956.91;;;12.45;45.32
84224;BME280;74353;51.208;0.304;2023-12-22T09:18:13;100956.92;;;12.64;44.95
84224;BME280;74353;51.208;0.304;2023-12-22T09:20:40;100964.87;;;12.72;45.17
84224;BME280;74353;51.208;0.304;2023-12-22T09:23:08;100957.89;;;12.55;44.62
84224;BME280;74353;51.208;0.304;2023-12-22T09:25:34;100966.12;;;12.82;44.64
84224;BME280;74353;51.208;0.304;2023-12-22T09:28:00;100965.50;;;12.50;44.70
84224;BME280;74353;51.208;0.304;2023-12-22T09:30:26;100971.06;;;12.47;44.68
84224;BME280;74353;51.208;0.304;2023-12-22T09:32:52;100971.47;;;12.74;44.67
84224;BME280;74353;51.208;0.304;2023-12-22T09:35:19;100984.49;;;12.48;44.69
84224;BME280;74353;51.208;0.304;2023-12-22T09:37:44;100980.09;;;12.68;44.37
84224;BME280;74353;51.208;0.304;2023-12-22T09:40:12;100991.31;;;12.55;44.55
84224;BME280;74353;51.208;0.304;2023-12-22T09:42:41;101002.64;;;12.95;44.33
84224;BME280;74353;51.208;0.304;2023-12-22T09:45:08;101003.62;;;12.76;44.64
84224;BME280;74353;51.208;0.304;2023-12-22T09:47:34;101003.41;;;12.60;44.90
84224;BME280;74353;51.208;0.304;2023-12-22T09:50:02;101014.26;;;12.66;44.44
84224;BME280;74353;51.208;0.304;2023-12-22T09:52:28;101007.22;;;12.57;44.60
84224;BME280;74353;51.208;0.304;2023-12-22T09:54:54;101007.23;;;12.98;44.42
84224;BME280;74353;51.208;0.304;2023-12-22T09:57:22;101009.66;;;13.08;44.20
84224;BME280;74353;51.208;0.304;2023-12-22T09:59:49;101030.83;;;12.66;44.40
84224;BME280;74353;51.208;0.304;2023-12-22T10:02:13;101025.97;;;12.62;44.56
84224;BME280;74353;51.208;0.304;2023-12-22T10:04:38;101030.16;;;12.66;44.65
84224;BME280;74353;51.208;0.304;2023-12-22T10:07:05;101032.89;;;12.68;44.85
84224;BME280;74353;51.208;0.304;2023-12-22T10:09:31;101043.69;;;12.79;45.05
84224;BME280;74353;51.208;0.304;2023-12-22T10:11:57;101038.43;;;12.64;45.41
84224;BME280;74353;51.208;0.304;2023-12-22T10:14:26;101037.12;;;12.92;44.94
84224;BME280;74353;51.208;0.304;2023-12-22T10:16:52;101037.53;;;12.89;44.85
84224;BME280;74353;51.208;0.304;2023-12-22T10:19:19;101045.91;;;12.64;44.97
84224;BME280;74353;51.208;0.304;2023-12-22T10:21:48;101043.65;;;12.99;44.82
84224;BME280;74353;51.208;0.304;2023-12-22T10:26:38;101056.67;;;12.96;44.62
84224;BME280;74353;51.208;0.304;2023-12-22T10:29:12;101050.90;;;13.14;44.59
84224;BME280;74353;51.208;0.304;2023-12-22T10:31:40;101049.06;;;12.63;44.44
84224;BME280;74353;51.208;0.304;2023-12-22T10:34:03;101051.83;;;12.92;44.31
84224;BME280;74353;51.208;0.304;2023-12-22T10:36:29;101060.22;;;12.81;44.42
84224;BME280;74353;51.208;0.304;2023-12-22T10:38:56;101071.09;;;12.97;44.30
84224;BME280;74353;51.208;0.304;2023-12-22T10:41:21;101071.71;;;12.90;44.48
84224;BME280;74353;51.208;0.304;2023-12-22T10:43:52;101075.46;;;12.80;44.70
84224;BME280;74353;51.208;0.304;2023-12-22T10:46:19;101069.24;;;13.28;44.25
84224;BME280;74353;51.208;0.304;2023-12-22T10:48:47;101069.17;;;13.08;44.27
84224;BME280;74353;51.208;0.304;2023-12-22T10:51:13;101067.35;;;12.95;44.40
84224;BME280;74353;51.208;0.304;2023-12-22T10:53:41;101066.77;;;12.80;44.67
84224;BME280;74353;51.208;0.304;2023-12-22T10:56:06;101067.05;;;13.08;44.19
84224;BME280;74353;51.208;0.304;2023-12-22T10:58:33;101068.18;;;13.14;44.17
84224;BME280;74353;51.208;0.304;2023-12-22T11:01:01;101071.64;;;13.18;44.01
84224;BME280;74353;51.208;0.304;2023-12-22T11:03:32;101067.88;;;13.48;43.98
84224;BME280;74353;51.208;0.304;2023-12-22T11:05:57;101076.43;;;13.16;44.01
84224;BME280;74353;51.208;0.304;2023-12-22T11:08:22;101074.83;;;12.94;44.02
84224;BME280;74353;51.208;0.304;2023-12-22T11:10:52;101069.17;;;13.31;43.91
84224;BME280;74353;51.208;0.304;2023-12-22T11:13:16;101069.67;;;11.93;43.65
84224;BME280;74353;51.208;0.304;2023-12-22T11:15:41;101061.83;;;13.57;43.41
84224;BME280;74353;51.208;0.304;2023-12-22T11:18:07;101072.85;;;13.08;43.34
84224;BME280;74353;51.208;0.304;2023-12-22T11:20:33;101068.79;;;13.35;43.17
84224;BME280;74353;51.208;0.304;2023-12-22T11:22:59;101064.77;;;13.19;43.70
84224;BME280;74353;51.208;0.304;2023-12-22T11:25:28;101077.48;;;13.07;43.53
84224;BME280;74353;51.208;0.304;2023-12-22T11:27:53;101073.69;;;13.41;43.39
84224;BME280;74353;51.208;0.304;2023-12-22T11:30:20;101065.76;;;13.15;43.37
84224;BME280;74353;51.208;0.304;2023-12-22T11:32:46;101071.29;;;13.20;43.11
84224;BME280;74353;51.208;0.304;2023-12-22T11:35:12;101071.85;;;13.45;43.14
84224;BME280;74353;51.208;0.304;2023-12-22T11:37:39;101066.97;;;13.39;43.27
84224;BME280;74353;51.208;0.304;2023-12-22T11:40:07;101070.08;;;13.19;43.11
84224;BME280;74353;51.208;0.304;2023-12-22T11:42:35;101063.88;;;13.42;43.14
84224;BME280;74353;51.208;0.304;2023-12-22T11:44:58;101062.89;;;13.46;42.83
84224;BME280;74353;51.208;0.304;2023-12-22T11:47:24;101059.54;;;13.18;42.95
84224;BME280;74353;51.208;0.304;2023-12-22T11:49:49;101059.47;;;13.39;42.67
84224;BME280;74353;51.208;0.304;2023-12-22T11:52:18;101052.56;;;13.48;42.94
84224;BME280;74353;51.208;0.304;2023-12-22T11:54:46;101048.80;;;13.64;42.62
84224;BME280;74353;51.208;0.304;2023-12-22T11:59:34;101050.80;;;13.50;42.57
84224;BME280;74353;51.208;0.304;2023-12-22T12:02:01;101051.12;;;13.39;42.94
84224;BME280;74353;51.208;0.304;2023-12-22T12:04:26;101054.20;;;13.71;42.40
84224;BME280;74353;51.208;0.304;2023-12-22T12:06:52;101049.80;;;13.39;42.40
84224;BME280;74353;51.208;0.304;2023-12-22T12:09:24;101045.33;;;13.32;42.56
84224;BME280;74353;51.208;0.304;2023-12-22T12:14:13;101053.28;;;13.65;42.30
84224;BME280;74353;51.208;0.304;2023-12-22T12:16:38;101047.16;;;13.35;42.28
84224;BME280;74353;51.208;0.304;2023-12-22T12:19:02;101052.10;;;13.49;41.98
84224;BME280;74353;51.208;0.304;2023-12-22T12:21:31;101048.84;;;13.38;42.19
84224;BME280;74353;51.208;0.304;2023-12-22T12:23:58;101044.52;;;13.77;42.02
84224;BME280;74353;51.208;0.304;2023-12-22T12:26:29;101057.99;;;13.75;41.96
84224;BME280;74353;51.208;0.304;2023-12-22T12:28:55;101048.47;;;13.41;41.69
84224;BME280;74353;51.208;0.304;2023-12-22T12:33:47;101040.93;;;13.89;41.68
84224;BME280;74353;51.208;0.304;2023-12-22T12:36:13;101046.83;;;13.54;41.37
84224;BME280;74353;51.208;0.304;2023-12-22T12:38:44;101043.84;;;13.53;41.89
84224;BME280;74353;51.208;0.304;2023-12-22T12:41:04;101041.81;;;13.44;41.56
84224;BME280;74353;51.208;0.304;2023-12-22T12:43:30;101043.10;;;13.87;41.24
84224;BME280;74353;51.208;0.304;2023-12-22T12:46:03;101042.96;;;13.57;41.31
84224;BME280;74353;51.208;0.304;2023-12-22T12:48:24;101042.89;;;13.68;41.05
84224;BME280;74353;51.208;0.304;2023-12-22T12:50:52;101052.19;;;14.08;41.13
84224;BME280;74353;51.208;0.304;2023-12-22T12:53:19;101050.71;;;13.64;41.37
84224;BME280;74353;51.208;0.304;2023-12-22T12:55:45;101047.94;;;13.87;41.08
84224;BME280;74353;51.208;0.304;2023-12-22T12:58:11;101046.16;;;13.46;41.25